createdAt,value
2018-09-10T00:00:22.826Z,59.49
2018-09-10T00:02:51.084Z,60.03
2018-09-10T00:05:19.157Z,59.94
2018-09-10T00:07:47.284Z,59.29
2018-09-10T00:10:15.386Z,59.19
2018-09-10T00:12:43.379Z,59.62
2018-09-10T00:15:11.413Z,58.95
2018-09-10T00:17:39.434Z,59.77
2018-09-10T00:20:07.446Z,60.41
2018-09-10T00:22:35.455Z,59.34
2018-09-10T00:25:03.480Z,59.02
2018-09-10T00:27:31.544Z,59.42
2018-09-10T00:29:59.550Z,59.71
2018-09-10T00:32:27.592Z,60.38
2018-09-10T00:34:55.637Z,59.80
2018-09-10T00:37:23.687Z,60.09
2018-09-10T00:39:51.756Z,59.30
2018-09-10T00:42:19.829Z,59.17
2018-09-10T00:44:47.921Z,59.91
2018-09-10T00:47:15.955Z,59.86
2018-09-10T00:49:44.028Z,59.43
2018-09-10T00:52:12.213Z,59.61
2018-09-10T00:54:40.597Z,58.90
2018-09-10T00:57:08.677Z,59.37
2018-09-10T00:59:36.706Z,60.42
2018-09-10T01:02:04.766Z,61.28
2018-09-10T01:04:32.793Z,61.71
2018-09-10T01:07:00.852Z,63.06
2018-09-10T01:09:28.881Z,62.05
2018-09-10T01:11:56.965Z,62.18
2018-09-10T01:14:25.035Z,61.80
2018-09-10T01:16:53.066Z,62.19
2018-09-10T01:19:21.048Z,62.01
2018-09-10T01:21:49.174Z,62.99
2018-09-10T01:24:17.257Z,62.35
2018-09-10T01:26:45.312Z,62.56
2018-09-10T01:29:13.604Z,63.05
2018-09-10T01:31:41.649Z,63.08
2018-09-10T01:34:15.188Z,63.79
2018-09-10T01:36:43.221Z,64.34
2018-09-10T01:39:11.322Z,64.01
2018-09-10T01:41:39.342Z,63.48
2018-09-10T01:44:07.524Z,63.42
2018-09-10T01:46:35.513Z,64.18
2018-09-10T01:49:03.543Z,64.37
2018-09-10T01:51:31.572Z,64.30
2018-09-10T01:53:59.858Z,63.97
2018-09-10T01:56:28.290Z,63.54
2018-09-10T01:58:56.329Z,62.50
2018-09-10T02:01:24.384Z,62.47
2018-09-10T02:03:52.397Z,62.11
2018-09-10T02:06:20.704Z,62.57
2018-09-10T02:08:48.778Z,62.61
2018-09-10T02:11:16.971Z,63.02
2018-09-10T02:13:45.050Z,62.23
2018-09-10T02:16:15.557Z,61.98
2018-09-10T02:18:44.494Z,61.96
2018-09-10T02:21:12.506Z,61.76
2018-09-10T02:23:40.607Z,61.93
2018-09-10T02:26:08.544Z,61.93
2018-09-10T02:28:36.556Z,61.21
2018-09-10T02:33:33.757Z,61.33
2018-09-10T02:36:01.768Z,60.80
2018-09-10T02:38:29.950Z,60.33
2018-09-10T02:40:57.985Z,60.57
2018-09-10T02:43:26.045Z,61.62
2018-09-10T02:45:54.075Z,61.09
2018-09-10T02:48:22.101Z,61.82
2018-09-10T02:50:50.128Z,61.54
2018-09-10T02:53:18.117Z,62.50
2018-09-10T02:55:46.130Z,63.28
2018-09-10T02:58:14.141Z,63.05
2018-09-10T03:00:42.180Z,62.49
2018-09-10T03:03:10.184Z,62.42
2018-09-10T03:05:38.184Z,62.71
2018-09-10T03:08:06.258Z,62.50
2018-09-10T03:10:34.333Z,62.60
2018-09-10T03:13:02.396Z,62.81
2018-09-10T03:15:30.572Z,61.83
2018-09-10T03:17:58.802Z,62.00
2018-09-10T03:20:26.648Z,61.67
2018-09-10T03:22:54.711Z,62.41
2018-09-10T03:25:22.781Z,62.39
2018-09-10T03:27:50.817Z,61.06
2018-09-10T03:30:18.847Z,61.05
2018-09-10T03:32:46.857Z,61.18
2018-09-10T03:35:14.861Z,61.21
2018-09-10T03:37:42.900Z,61.01
2018-09-10T03:40:10.912Z,60.33
2018-09-10T03:42:39.019Z,60.14
2018-09-10T03:45:07.203Z,60.22
2018-09-10T03:47:35.313Z,60.77
2018-09-10T03:50:03.366Z,60.43
2018-09-10T03:52:31.423Z,59.72
2018-09-10T03:54:59.426Z,59.94
2018-09-10T03:57:27.493Z,61.34
2018-09-10T03:59:55.526Z,60.54
2018-09-10T04:02:23.538Z,60.57
2018-09-10T04:04:51.549Z,59.90
2018-09-10T04:07:19.616Z,59.21
2018-09-10T04:09:47.705Z,59.79
2018-09-10T04:12:15.757Z,58.94
2018-09-10T04:14:43.775Z,58.70
2018-09-10T04:17:11.817Z,59.03
2018-09-10T04:19:39.864Z,58.56
2018-09-10T04:22:07.977Z,58.34
2018-09-10T04:24:36.009Z,57.60
2018-09-10T04:27:04.134Z,57.38
2018-09-10T04:29:32.184Z,58.00
2018-09-10T04:32:00.200Z,58.20
2018-09-10T04:34:28.195Z,57.73
2018-09-10T04:36:56.240Z,57.93
2018-09-10T04:39:24.269Z,57.42
2018-09-10T04:41:52.286Z,57.28
2018-09-10T04:44:20.370Z,56.76
2018-09-10T04:46:48.377Z,57.58
2018-09-10T04:49:16.401Z,57.50
2018-09-10T04:51:44.473Z,57.38
2018-09-10T04:54:12.514Z,57.87
2018-09-10T04:56:40.797Z,57.56
2018-09-10T04:59:08.818Z,58.07
2018-09-10T05:01:36.881Z,58.09
2018-09-10T05:04:04.920Z,58.43
2018-09-10T05:06:32.952Z,58.45
2018-09-10T05:09:00.969Z,57.51
2018-09-10T05:11:29.012Z,57.72
2018-09-10T05:13:57.012Z,58.43
2018-09-10T05:16:25.065Z,58.22
2018-09-10T05:18:53.198Z,59.47
2018-09-10T05:21:21.314Z,59.96
2018-09-10T05:23:49.344Z,60.61
2018-09-10T05:26:17.466Z,59.60
2018-09-10T05:28:45.550Z,58.12
2018-09-10T05:31:13.621Z,56.91
2018-09-10T05:33:41.728Z,57.79
2018-09-10T05:36:09.763Z,57.69
2018-09-10T05:38:37.764Z,57.99
2018-09-10T05:41:05.761Z,59.24
2018-09-10T05:43:33.814Z,59.39
2018-09-10T05:46:01.863Z,59.47
2018-09-10T05:48:29.947Z,60.29
2018-09-10T05:50:58.013Z,60.17
2018-09-10T05:53:26.061Z,60.57
2018-09-10T05:55:54.109Z,60.83
2018-09-10T05:58:22.131Z,60.70
2018-09-10T06:00:50.324Z,60.92
2018-09-10T06:03:18.309Z,60.62
2018-09-10T06:05:46.324Z,60.62
2018-09-10T06:08:14.322Z,61.64
2018-09-10T06:10:42.342Z,60.66
2018-09-10T06:13:10.418Z,60.06
2018-09-10T06:15:38.486Z,60.03
2018-09-10T06:18:06.550Z,58.84
2018-09-10T06:20:34.608Z,59.85
2018-09-10T06:23:02.632Z,58.91
2018-09-10T06:25:30.712Z,59.14
2018-09-10T06:27:58.752Z,58.53
2018-09-10T06:30:26.803Z,58.01
2018-09-10T06:32:54.825Z,57.21
2018-09-10T06:35:22.840Z,57.67
2018-09-10T06:37:50.846Z,57.83
2018-09-10T06:40:18.873Z,57.57
2018-09-10T06:42:47.005Z,57.18
2018-09-10T06:45:15.061Z,58.04
2018-09-10T06:47:43.346Z,57.00
2018-09-10T06:50:11.290Z,56.78
2018-09-10T06:52:39.296Z,55.73
2018-09-10T06:55:07.315Z,55.63
2018-09-10T06:57:35.345Z,55.80
2018-09-10T07:00:03.363Z,57.16
2018-09-10T07:02:31.401Z,56.51
2018-09-10T07:04:59.427Z,57.24
2018-09-10T07:07:27.467Z,57.25
2018-09-10T07:09:55.472Z,56.42
2018-09-10T07:12:23.581Z,57.11
2018-09-10T07:14:51.585Z,57.11
2018-09-10T07:17:19.639Z,56.42
2018-09-10T07:19:47.664Z,56.13
2018-09-10T07:22:15.709Z,56.46
2018-09-10T07:24:50.346Z,55.10
2018-09-10T07:27:18.356Z,55.84
2018-09-10T07:29:46.361Z,55.68
2018-09-10T07:32:14.425Z,56.17
2018-09-10T07:34:42.567Z,54.78
2018-09-10T07:37:10.597Z,55.48
2018-09-10T07:39:38.700Z,54.58
2018-09-10T07:42:06.720Z,54.65
2018-09-10T07:44:34.717Z,55.07
2018-09-10T07:47:02.756Z,54.54
2018-09-10T07:49:30.789Z,56.41
2018-09-10T07:51:58.819Z,55.78
2018-09-10T07:54:26.940Z,54.50
2018-09-10T07:56:55.058Z,54.25
2018-09-10T07:59:23.102Z,55.52
2018-09-10T08:01:51.112Z,53.94
2018-09-10T08:04:19.184Z,54.23
2018-09-10T08:06:47.212Z,54.28
2018-09-10T08:09:15.257Z,53.45
2018-09-10T08:11:43.222Z,52.59
2018-09-10T08:14:11.214Z,54.31
2018-09-10T08:16:39.300Z,50.79
2018-09-10T08:19:07.876Z,50.83
2018-09-10T08:21:36.078Z,51.66
2018-09-10T08:24:04.196Z,50.52
2018-09-10T08:26:32.192Z,49.79
2018-09-10T08:29:00.331Z,48.66
2018-09-10T08:31:28.877Z,47.72
2018-09-10T08:33:57.247Z,45.65
2018-09-10T08:36:25.353Z,45.23
2018-09-10T08:38:53.377Z,46.52
2018-09-10T08:41:21.400Z,47.24
2018-09-10T08:43:49.544Z,45.08
2018-09-10T08:46:17.633Z,46.05
2018-09-10T08:48:45.761Z,47.40
2018-09-10T08:51:13.856Z,45.58
2018-09-10T08:53:41.916Z,45.09
2018-09-10T08:56:10.228Z,45.18
2018-09-10T08:58:38.058Z,47.00
2018-09-10T09:01:06.132Z,47.67
2018-09-10T09:03:34.141Z,48.84
2018-09-10T09:06:02.227Z,48.92
2018-09-10T09:08:30.230Z,49.65
2018-09-10T09:10:58.281Z,50.77
2018-09-10T09:13:26.474Z,50.75
2018-09-10T09:15:54.496Z,50.07
2018-09-10T09:18:22.568Z,51.79
2018-09-10T09:20:50.655Z,51.54
2018-09-10T09:23:19.050Z,53.19
2018-09-10T09:25:46.961Z,52.37
2018-09-10T09:28:15.082Z,51.75
2018-09-10T09:30:43.126Z,51.28
2018-09-10T09:33:11.241Z,49.95
2018-09-10T09:35:44.848Z,49.99
2018-09-10T09:38:18.326Z,48.17
2018-09-10T09:41:51.428Z,50.46
2018-09-10T09:44:24.937Z,49.93
2018-09-10T09:46:52.971Z,50.04
2018-09-10T09:49:21.055Z,53.14
2018-09-10T09:51:49.071Z,53.22
2018-09-10T09:54:17.145Z,53.47
2018-09-10T09:56:45.229Z,53.63
2018-09-10T09:59:13.185Z,50.32
2018-09-10T10:01:47.666Z,50.93
2018-09-10T10:04:15.716Z,49.14
2018-09-10T10:06:43.736Z,49.26
2018-09-10T10:09:12.626Z,48.66
2018-09-10T10:11:41.148Z,49.42
2018-09-10T10:14:09.799Z,47.82
2018-09-10T10:16:38.087Z,49.82
2018-09-10T10:19:06.368Z,50.04
2018-09-10T10:21:34.467Z,51.26
2018-09-10T10:24:02.476Z,50.37
2018-09-10T10:26:30.686Z,50.67
2018-09-10T10:28:58.713Z,51.17
2018-09-10T10:31:26.733Z,50.24
2018-09-10T10:33:54.748Z,50.64
2018-09-10T10:36:22.788Z,50.59
2018-09-10T10:38:50.817Z,50.74
2018-09-10T10:41:19.007Z,48.05
2018-09-10T10:43:47.012Z,46.50
2018-09-10T10:46:15.057Z,47.41
2018-09-10T10:48:43.090Z,46.04
2018-09-10T10:51:11.213Z,46.88
2018-09-10T10:53:39.277Z,46.88
2018-09-10T10:56:07.370Z,46.96
2018-09-10T11:01:00.218Z,45.41
2018-09-10T11:03:28.233Z,46.40
2018-09-10T11:05:56.353Z,46.45
2018-09-10T11:08:24.399Z,46.84
2018-09-10T11:10:52.452Z,46.49
2018-09-10T11:13:20.566Z,45.14
2018-09-10T11:15:48.618Z,45.15
2018-09-10T11:18:16.696Z,44.97
2018-09-10T11:20:44.701Z,43.76
2018-09-10T11:23:13.064Z,44.98
2018-09-10T11:25:41.145Z,44.60
2018-09-10T11:28:09.216Z,46.00
2018-09-10T11:30:37.268Z,43.67
2018-09-10T11:33:05.301Z,42.86
2018-09-10T11:35:33.324Z,44.63
2018-09-10T11:38:01.356Z,43.92
2018-09-10T11:40:29.546Z,41.96
2018-09-10T11:42:57.611Z,44.35
2018-09-10T11:45:25.696Z,45.52
2018-09-10T11:47:53.813Z,43.62
2018-09-10T11:50:21.957Z,42.10
2018-09-10T11:52:50.029Z,42.37
2018-09-10T11:55:18.053Z,43.32
2018-09-10T11:57:46.262Z,43.79
2018-09-10T12:00:14.320Z,42.23
2018-09-10T12:02:42.396Z,43.62
2018-09-10T12:05:10.509Z,41.86
2018-09-10T12:07:38.673Z,43.43
2018-09-10T12:10:06.776Z,44.32
2018-09-10T12:12:34.820Z,43.32
2018-09-10T12:15:02.819Z,43.32
2018-09-10T12:17:30.841Z,41.37
2018-09-10T12:19:58.888Z,41.04
2018-09-10T12:22:26.959Z,40.93
2018-09-10T12:24:55.118Z,42.38
2018-09-10T12:27:23.177Z,42.18
2018-09-10T12:29:51.616Z,41.13
2018-09-10T12:32:19.714Z,41.73
2018-09-10T12:34:47.741Z,41.04
2018-09-10T12:37:15.776Z,41.29
2018-09-10T12:39:43.855Z,40.92
2018-09-10T12:42:11.902Z,42.91
2018-09-10T12:44:39.972Z,43.69
2018-09-10T12:47:08.137Z,42.37
2018-09-10T12:49:36.151Z,42.56
2018-09-10T12:52:04.259Z,43.65
2018-09-10T12:54:32.318Z,42.97
2018-09-10T12:57:00.445Z,43.04
2018-09-10T12:59:28.517Z,42.53
2018-09-10T13:01:56.528Z,44.45
2018-09-10T13:04:24.579Z,43.73
2018-09-10T13:06:52.612Z,41.81
2018-09-10T13:09:20.631Z,42.50
2018-09-10T13:11:48.621Z,42.85
2018-09-10T13:14:16.636Z,43.46
2018-09-10T13:16:44.657Z,44.60
2018-09-10T13:19:12.684Z,43.24
2018-09-10T13:21:40.803Z,42.92
2018-09-10T13:24:08.829Z,43.79
2018-09-10T13:26:36.868Z,44.38
2018-09-10T13:29:05.352Z,42.82
2018-09-10T13:31:33.364Z,43.35
2018-09-10T13:34:01.393Z,45.61
2018-09-10T13:36:29.468Z,44.26
2018-09-10T13:38:57.450Z,42.62
2018-09-10T13:41:25.517Z,42.92
2018-09-10T13:43:53.678Z,43.55
2018-09-10T13:46:21.720Z,43.80
2018-09-10T13:48:49.772Z,43.12
2018-09-10T13:51:17.783Z,41.87
2018-09-10T13:53:45.846Z,43.01
2018-09-10T13:56:13.861Z,43.57
2018-09-10T13:58:41.989Z,43.25
2018-09-10T14:01:10.029Z,43.35
2018-09-10T14:03:38.126Z,43.60
2018-09-10T14:06:06.281Z,43.97
2018-09-10T14:08:34.344Z,43.37
2018-09-10T14:11:02.411Z,42.71
2018-09-10T14:13:30.504Z,42.84
2018-09-10T14:15:58.588Z,43.16
2018-09-10T14:18:26.825Z,43.89
2018-09-10T14:20:55.001Z,43.43
2018-09-10T14:23:23.079Z,43.31
2018-09-10T14:25:51.281Z,44.40
2018-09-10T14:28:19.364Z,45.41
2018-09-10T14:30:47.392Z,44.72
2018-09-10T14:33:15.440Z,43.78
2018-09-10T14:35:43.523Z,44.16
2018-09-10T14:38:11.554Z,43.99
2018-09-10T14:40:39.669Z,45.28
2018-09-10T14:43:07.787Z,46.81
2018-09-10T14:45:35.922Z,45.90
2018-09-10T14:48:03.933Z,46.72
2018-09-10T14:50:32.020Z,47.49
2018-09-10T14:53:00.039Z,47.74
2018-09-10T14:55:28.040Z,47.40
2018-09-10T14:57:56.057Z,47.62
2018-09-10T15:00:26.201Z,48.73
2018-09-10T15:02:55.067Z,48.33
2018-09-10T15:05:23.239Z,47.83
2018-09-10T15:07:52.083Z,48.00
2018-09-10T15:10:20.154Z,49.14
2018-09-10T15:12:48.390Z,49.07
2018-09-10T15:15:16.854Z,48.78
2018-09-10T15:17:45.131Z,48.88
2018-09-10T15:20:13.181Z,48.95
2018-09-10T15:22:41.687Z,49.63
2018-09-10T15:25:09.764Z,50.38
2018-09-10T15:27:37.817Z,48.24
2018-09-10T15:30:06.059Z,49.35
2018-09-10T15:32:34.288Z,48.99
2018-09-10T15:35:02.351Z,48.58
2018-09-10T15:37:30.423Z,48.74
2018-09-10T15:39:58.495Z,47.88
2018-09-10T15:42:26.646Z,48.23
2018-09-10T15:44:54.771Z,48.27
2018-09-10T15:47:22.927Z,48.15
2018-09-10T15:49:50.954Z,47.57
2018-09-10T15:52:18.975Z,48.86
2018-09-10T15:54:47.009Z,49.94
2018-09-10T15:57:15.083Z,49.23
2018-09-10T15:59:43.304Z,49.66
2018-09-10T16:02:11.560Z,49.39
2018-09-10T16:04:39.766Z,49.04
2018-09-10T16:07:07.850Z,50.83
2018-09-10T16:09:35.954Z,49.50
2018-09-10T16:12:04.042Z,50.24
2018-09-10T16:14:32.144Z,49.38
2018-09-10T16:17:00.323Z,50.01
2018-09-10T16:19:28.271Z,48.83
2018-09-10T16:21:56.446Z,49.72
2018-09-10T16:24:24.505Z,50.01
2018-09-10T16:26:52.578Z,49.61
2018-09-10T16:29:20.647Z,50.10
2018-09-10T16:31:48.724Z,50.33
2018-09-10T16:34:16.783Z,52.02
2018-09-10T16:36:44.868Z,51.49
2018-09-10T16:39:12.973Z,51.03
2018-09-10T16:41:41.229Z,51.54
2018-09-10T16:44:09.381Z,51.55
2018-09-10T16:46:37.641Z,51.34
2018-09-10T16:49:05.784Z,51.49
2018-09-10T16:51:33.858Z,51.33
2018-09-10T16:54:02.057Z,51.94
2018-09-10T16:56:30.258Z,52.00
2018-09-10T16:58:58.329Z,52.04
2018-09-10T17:01:26.809Z,51.34
2018-09-10T17:03:54.930Z,53.22
2018-09-10T17:06:23.246Z,52.59
2018-09-10T17:08:51.353Z,52.65
2018-09-10T17:11:19.580Z,51.78
2018-09-10T17:13:47.688Z,51.38
2018-09-10T17:16:15.825Z,52.25
2018-09-10T17:18:44.031Z,52.79
2018-09-10T17:21:12.186Z,53.82
2018-09-10T17:23:40.273Z,53.24
2018-09-10T17:26:08.361Z,52.98
2018-09-10T17:28:36.442Z,52.45
2018-09-10T17:31:04.468Z,53.07
2018-09-10T17:33:32.503Z,53.10
2018-09-10T17:36:00.819Z,53.37
2018-09-10T17:38:28.838Z,53.21
2018-09-10T17:40:56.995Z,52.40
2018-09-10T17:43:25.461Z,53.28
2018-09-10T17:45:53.534Z,52.77
2018-09-10T17:48:21.592Z,52.03
2018-09-10T17:50:49.793Z,52.70
2018-09-10T17:53:18.029Z,51.43
2018-09-10T17:55:46.237Z,52.15
2018-09-10T17:58:14.411Z,51.94
2018-09-10T18:00:45.687Z,51.78
2018-09-10T18:03:14.068Z,50.91
2018-09-10T18:05:42.745Z,51.46
2018-09-10T18:08:11.024Z,51.07
2018-09-10T18:10:39.251Z,50.82
2018-09-10T18:13:07.409Z,50.94
2018-09-10T18:15:35.565Z,50.30
2018-09-10T18:18:04.021Z,50.08
2018-09-10T18:20:32.275Z,50.56
2018-09-10T18:23:00.385Z,50.65
2018-09-10T18:25:28.589Z,50.38
2018-09-10T18:27:56.714Z,50.11
2018-09-10T18:30:24.892Z,50.75
2018-09-10T18:32:53.004Z,50.10
2018-09-10T18:35:21.065Z,51.13
2018-09-10T18:37:49.141Z,51.07
2018-09-10T18:40:17.334Z,50.57
2018-09-10T18:42:45.286Z,50.64
2018-09-10T18:45:13.393Z,51.26
2018-09-10T18:47:41.456Z,50.76
2018-09-10T18:50:09.472Z,50.58
2018-09-10T18:52:37.499Z,51.40
2018-09-10T18:55:05.802Z,50.77
2018-09-10T18:57:33.794Z,52.18
2018-09-10T19:00:01.957Z,52.36
2018-09-10T19:02:30.029Z,53.78
2018-09-10T19:04:58.061Z,53.04
2018-09-10T19:07:26.359Z,53.37
2018-09-10T19:09:54.484Z,53.98
2018-09-10T19:12:22.548Z,53.74
2018-09-10T19:14:50.567Z,54.28
2018-09-10T19:17:18.602Z,53.67
2018-09-10T19:19:47.039Z,54.13
2018-09-10T19:22:15.066Z,54.29
2018-09-10T19:24:43.152Z,54.59
2018-09-10T19:27:11.157Z,54.26
2018-09-10T19:29:39.300Z,54.42
2018-09-10T19:32:07.725Z,54.89
2018-09-10T19:34:35.748Z,54.59
2018-09-10T19:37:03.778Z,54.72
2018-09-10T19:39:31.877Z,55.15
2018-09-10T19:41:59.948Z,54.58
2018-09-10T19:44:28.193Z,54.48
2018-09-10T19:46:56.241Z,55.68
2018-09-10T19:49:24.399Z,55.63
2018-09-10T19:51:52.421Z,55.41
2018-09-10T19:54:20.888Z,55.24
2018-09-10T19:56:49.024Z,55.60
2018-09-10T19:59:17.547Z,55.35
2018-09-10T20:01:45.680Z,55.72
2018-09-10T20:04:14.026Z,55.97
2018-09-10T20:06:42.049Z,55.41
2018-09-10T20:09:11.274Z,55.58
2018-09-10T20:11:39.321Z,56.11
2018-09-10T20:14:07.757Z,56.66
2018-09-10T20:16:35.858Z,56.72
2018-09-10T20:19:04.104Z,55.52
2018-09-10T20:21:32.112Z,55.55
2018-09-10T20:24:00.128Z,56.33
2018-09-10T20:26:28.268Z,56.32
2018-09-10T20:28:56.553Z,56.01
2018-09-10T20:31:24.609Z,55.88
2018-09-10T20:34:10.282Z,56.48
2018-09-10T20:36:39.104Z,56.76
2018-09-10T20:39:08.599Z,56.63
2018-09-10T20:41:36.669Z,57.15
2018-09-10T20:44:04.708Z,56.99
2018-09-10T20:46:32.744Z,57.53
2018-09-10T20:49:01.066Z,57.08
2018-09-10T20:51:29.509Z,57.83
2018-09-10T20:53:57.488Z,57.53
2018-09-10T20:56:25.914Z,56.72
2018-09-10T20:58:54.055Z,57.06
2018-09-10T21:01:22.148Z,57.18
2018-09-10T21:03:50.393Z,58.21
2018-09-10T21:06:18.927Z,57.55
2018-09-10T21:08:47.568Z,58.79
2018-09-10T21:11:15.639Z,57.82
2018-09-10T21:13:44.903Z,57.87
2018-09-10T21:16:13.175Z,58.52
2018-09-10T21:18:41.301Z,58.32
2018-09-10T21:21:09.472Z,58.64
2018-09-10T21:23:37.548Z,58.18
2018-09-10T21:26:05.631Z,58.26
2018-09-10T21:28:33.772Z,58.38
2018-09-10T21:31:02.986Z,58.43
2018-09-10T21:33:31.296Z,58.50
2018-09-10T21:35:59.476Z,58.97
2018-09-10T21:38:27.466Z,59.00
2018-09-10T21:40:55.629Z,58.98
2018-09-10T21:43:23.814Z,58.05
2018-09-10T21:45:51.839Z,58.68
2018-09-10T21:48:19.935Z,59.05
2018-09-10T21:50:48.332Z,58.29
2018-09-10T21:53:16.445Z,58.25
2018-09-10T21:55:44.564Z,59.31
2018-09-10T21:58:12.764Z,58.10
2018-09-10T22:00:44.925Z,58.43
2018-09-10T22:03:14.017Z,58.67
2018-09-10T22:05:42.092Z,58.67
2018-09-10T22:08:10.193Z,58.55
2018-09-10T22:10:38.384Z,58.54
2018-09-10T22:13:06.612Z,59.39
2018-09-10T22:15:34.597Z,58.95
2018-09-10T22:18:02.631Z,58.40
2018-09-10T22:20:30.684Z,57.93
2018-09-10T22:22:58.688Z,58.63
2018-09-10T22:25:26.782Z,58.14
2018-09-10T22:27:54.852Z,57.93
2018-09-10T22:30:22.979Z,58.84
2018-09-10T22:32:51.389Z,58.69
2018-09-10T22:35:19.504Z,57.45
2018-09-10T22:37:47.524Z,57.99
2018-09-10T22:40:15.567Z,58.84
2018-09-10T22:42:43.564Z,59.09
2018-09-10T22:45:11.575Z,58.85
2018-09-10T22:47:39.650Z,59.36
2018-09-10T22:50:07.776Z,58.66
2018-09-10T22:52:35.800Z,58.73
2018-09-10T22:55:03.796Z,59.10
2018-09-10T22:57:31.829Z,58.97
2018-09-10T22:59:59.886Z,59.64
2018-09-10T23:02:27.996Z,59.14
2018-09-10T23:04:56.029Z,59.60
2018-09-10T23:07:24.120Z,58.93
2018-09-10T23:09:52.305Z,58.91
2018-09-10T23:12:20.518Z,59.56
2018-09-10T23:14:48.550Z,59.16
2018-09-10T23:17:16.559Z,59.59
2018-09-10T23:19:44.701Z,59.32
2018-09-10T23:22:12.689Z,59.60
2018-09-10T23:24:40.761Z,60.57
2018-09-10T23:27:08.853Z,59.77
2018-09-10T23:29:36.895Z,60.06
2018-09-10T23:32:04.927Z,60.15
2018-09-10T23:34:32.985Z,59.33
2018-09-10T23:37:01.022Z,59.32
2018-09-10T23:39:29.157Z,59.96
2018-09-10T23:41:57.182Z,60.72
2018-09-10T23:44:25.204Z,60.75
2018-09-10T23:46:53.236Z,60.09
2018-09-10T23:49:21.350Z,60.77
2018-09-10T23:51:49.377Z,61.34
2018-09-10T23:54:17.446Z,60.45
2018-09-10T23:56:45.467Z,61.10
2018-09-10T23:59:13.589Z,60.15
